RJSM

Misawa Airport

Airport
ICAO code
RJSM
IATA Code
MSJ
Summary
ICAO Region
APAC
ICAO Territory
Location

Misawa, Aomori Prefecture

Serving
Misawa
Elevation
119 ft
Coordinates
40° 42' 15" N , 141° 22' 10" E
KCC
Metar
Observation
RJSM 032000Z 19001KT 8000 -SHSN FEW015 BKN035 BKN050 M04/M07 Q1017
Station
Misawa Ab
Date/Time
2023-02-03 21:00:00
Wind direction
190°
Wind speed
01 kts
Lowest cloud amount
few clouds
Temperature
-4°C
Dew point
-7°C
Humidity
79%
QNH
1017 hPa
Weather condition
n/a

Misawa Airport is an airport in Misawa, a city in the Aomori Prefecture of Japan. It shares facilities and airport codes with the Misawa Air Base.

Climatology

Humid Sub-tropical climate (Köppen climate classification Cfa)

Runways

Designator Length Width Surface Rops
10/28 3048 46 ASP Yes/Yes

Airport map

Aerial View

SKYbrary Partners:

Safety knowledge contributed by: